Time;durP1;ratioP1;P1;durP2;ratioP2;P2;SDS_P1;SDS_P2;PMS_P1;PMS_P2;Temp;Humidity;BMP_temperature;BMP_pressure;BME280_temperature;BME280_humidity;BME280_pressure;Samples;Min_cycle;Max_cycle;Signal;HPM_P1;HPM_P2
2021/08/23 00:00:26;;;;;;;2.50;2.07;;;;;;;;;;4538876;28;20052;-65
2021/08/23 00:02:36;;;;;;;2.90;2.53;;;;;;;;;;4543122;28;31606;-65
2021/08/23 00:04:47;;;;;;;2.97;2.40;;;;;;;;;;4541075;28;20042;-65
2021/08/23 00:06:57;;;;;;;3.23;2.27;;;;;;;;;;4524016;28;20046;-65
2021/08/23 00:09:08;;;;;;;3.50;2.40;;;;;;;;;;4542305;28;20037;-66
2021/08/23 00:11:18;;;;;;;2.60;2.20;;;;;;;;;;4541664;28;20040;-65
2021/08/23 00:13:29;;;;;;;2.90;2.40;;;;;;;;;;4544403;28;21185;-64
2021/08/23 00:15:40;;;;;;;4.03;2.73;;;;;;;;;;4542941;28;20037;-65
2021/08/23 00:17:50;;;;;;;3.60;2.80;;;;;;;;;;4547442;28;20148;-65
2021/08/23 00:20:03;;;;;;;3.57;2.70;;;;;;;;;;4542974;28;33254;-65
2021/08/23 00:22:29;;;;;;;3.38;2.70;;;;;;;;;;4542407;28;20153;-65
2021/08/23 00:24:40;;;;;;;4.05;2.90;;;;;;;;;;4542071;28;20037;-65
2021/08/23 00:26:53;;;;;;;3.40;2.90;;;;;;;;;;4543993;28;20037;-65
2021/08/23 00:29:04;;;;;;;4.13;2.92;;;;;;;;;;4542516;28;20028;-65
2021/08/23 00:31:14;;;;;;;4.80;3.27;;;;;;;;;;4542946;28;23362;-65
2021/08/23 00:33:25;;;;;;;3.30;2.87;;;;;;;;;;4543716;28;20493;-65
2021/08/23 00:35:35;;;;;;;4.83;3.20;;;;;;;;;;4546983;28;20041;-65
2021/08/23 00:37:45;;;;;;;4.07;3.13;;;;;;;;;;4544876;28;20137;-65
2021/08/23 00:39:56;;;;;;;4.47;3.40;;;;;;;;;;4543740;28;20060;-65
2021/08/23 00:42:07;;;;;;;4.33;3.43;;;;;;;;;;4542447;28;21095;-65
2021/08/23 00:44:17;;;;;;;3.97;3.33;;;;;;;;;;4543312;28;20090;-65
2021/08/23 00:46:27;;;;;;;5.27;3.93;;;;;;;;;;4540792;28;29233;-65
2021/08/23 00:48:38;;;;;;;5.03;3.90;;;;;;;;;;4541364;28;20052;-65
2021/08/23 00:50:48;;;;;;;5.10;3.80;;;;;;;;;;4542884;28;20388;-65
2021/08/23 00:52:59;;;;;;;4.17;3.63;;;;;;;;;;4539759;28;24109;-65
2021/08/23 00:55:10;;;;;;;5.50;3.80;;;;;;;;;;4541435;28;32482;-65
2021/08/23 00:57:20;;;;;;;5.15;3.97;;;;;;;;;;4542713;28;20064;-65
2021/08/23 00:59:33;;;;;;;4.80;3.67;;;;;;;;;;4541376;28;20217;-64
2021/08/23 01:01:55;;;;;;;5.57;4.00;;;;;;;;;;4543214;28;20036;-65
2021/08/23 01:04:10;;;;;;;5.45;4.25;;;;;;;;;;4542726;28;20064;-65
2021/08/23 01:06:20;;;;;;;4.07;3.50;;;;;;;;;;4525910;28;20103;-66
2021/08/23 01:08:36;;;;;;;5.15;3.70;;;;;;;;;;4542836;28;20095;-65
2021/08/23 01:10:48;;;;;;;5.22;3.70;;;;;;;;;;4540599;28;20037;-65
2021/08/23 01:13:04;;;;;;;4.20;3.25;;;;;;;;;;4541308;28;20041;-65
2021/08/23 01:15:15;;;;;;;4.38;3.60;;;;;;;;;;4545017;28;20170;-65
2021/08/23 01:17:25;;;;;;;4.87;3.47;;;;;;;;;;4542709;28;20052;-65
2021/08/23 01:19:40;;;;;;;4.73;3.60;;;;;;;;;;4540999;28;28647;-65
2021/08/23 01:21:52;;;;;;;4.78;3.63;;;;;;;;;;4525681;28;20068;-65
2021/08/23 01:24:04;;;;;;;3.95;3.33;;;;;;;;;;4525995;28;20157;-65
2021/08/23 01:26:19;;;;;;;4.80;3.80;;;;;;;;;;4542187;28;20036;-65
2021/08/23 01:28:51;;;;;;;5.45;3.80;;;;;;;;;;4542277;28;20032;-65
2021/08/23 01:31:01;;;;;;;;;;;;;;;;;;4543312;28;20509;-64
2021/08/23 01:33:12;;;;;;;5.27;4.23;;;;;;;;;;4544394;28;19912;-65
2021/08/23 01:35:22;;;;;;;4.97;3.87;;;;;;;;;;4543943;28;20037;-65
2021/08/23 01:37:35;;;;;;;4.80;3.73;;;;;;;;;;4524381;28;20280;-65
2021/08/23 01:39:45;;;;;;;4.95;3.95;;;;;;;;;;4543695;28;20818;-65
2021/08/23 01:41:56;;;;;;;5.67;4.20;;;;;;;;;;4539718;28;20037;-65
2021/08/23 01:44:08;;;;;;;5.20;3.90;;;;;;;;;;4538275;28;28610;-65
2021/08/23 01:46:18;;;;;;;6.97;4.53;;;;;;;;;;4540278;28;20590;-65
2021/08/23 01:48:29;;;;;;;5.93;4.37;;;;;;;;;;4542761;28;20086;-65
2021/08/23 01:50:39;;;;;;;5.97;4.03;;;;;;;;;;4541082;28;20075;-65
2021/08/23 01:52:49;;;;;;;4.97;3.93;;;;;;;;;;4542670;28;20063;-65
2021/08/23 01:55:00;;;;;;;5.50;4.37;;;;;;;;;;4540790;28;21020;-65
2021/08/23 01:57:15;;;;;;;5.53;4.07;;;;;;;;;;4542081;28;20040;-65
2021/08/23 01:59:25;;;;;;;6.05;4.22;;;;;;;;;;4558520;28;20028;-65
2021/08/23 02:01:36;;;;;;;4.90;4.07;;;;;;;;;;4542309;28;20498;-65
2021/08/23 02:03:48;;;;;;;4.73;4.03;;;;;;;;;;4540505;28;20080;-65
2021/08/23 02:05:59;;;;;;;5.43;4.13;;;;;;;;;;4537391;28;20043;-65
2021/08/23 02:08:10;;;;;;;5.05;4.13;;;;;;;;;;4543495;28;20628;-65
2021/08/23 02:10:20;;;;;;;5.65;4.43;;;;;;;;;;4542278;28;20025;-65
2021/08/23 02:12:31;;;;;;;6.87;5.00;;;;;;;;;;4544927;28;20044;-65
2021/08/23 02:14:41;;;;;;;5.40;4.40;;;;;;;;;;4538583;28;20029;-65
2021/08/23 02:16:54;;;;;;;5.23;4.20;;;;;;;;;;4540939;28;20122;-65
2021/08/23 02:19:06;;;;;;;5.65;4.40;;;;;;;;;;4541005;28;21254;-65
2021/08/23 02:21:21;;;;;;;6.20;4.53;;;;;;;;;;4541104;28;20422;-65
2021/08/23 02:23:32;;;;;;;5.13;4.30;;;;;;;;;;4543089;28;20036;-65
2021/08/23 02:25:42;;;;;;;5.87;4.80;;;;;;;;;;4542611;28;20021;-65
2021/08/23 02:27:53;;;;;;;5.47;4.63;;;;;;;;;;4538736;28;20032;-65
2021/08/23 02:30:04;;;;;;;7.15;4.88;;;;;;;;;;4537769;28;20035;-65
2021/08/23 02:32:14;;;;;;;5.97;5.00;;;;;;;;;;4541382;28;20042;-65
2021/08/23 02:34:25;;;;;;;7.13;4.97;;;;;;;;;;4540737;28;33673;-65
2021/08/23 02:36:35;;;;;;;7.17;4.90;;;;;;;;;;4541603;28;34130;-65
2021/08/23 02:38:49;;;;;;;5.33;4.77;;;;;;;;;;4540551;28;20766;-65
2021/08/23 02:40:59;;;;;;;6.35;4.45;;;;;;;;;;4543023;28;20898;-65
2021/08/23 02:43:10;;;;;;;5.80;4.70;;;;;;;;;;4542720;28;20060;-65
2021/08/23 02:45:21;;;;;;;7.07;5.63;;;;;;;;;;4541968;28;20021;-65
2021/08/23 02:47:35;;;;;;;7.07;5.43;;;;;;;;;;4539023;28;20071;-65
2021/08/23 02:49:46;;;;;;;7.35;5.57;;;;;;;;;;4539892;28;20501;-65
2021/08/23 02:51:56;;;;;;;8.13;6.20;;;;;;;;;;4539198;28;25669;-65
2021/08/23 02:54:06;;;;;;;8.27;6.30;;;;;;;;;;4541194;28;21680;-65
2021/08/23 02:56:18;;;;;;;8.40;6.03;;;;;;;;;;4539794;28;27017;-66
2021/08/23 02:58:28;;;;;;;7.60;5.95;;;;;;;;;;4540017;28;20041;-65
2021/08/23 03:00:39;;;;;;;6.73;5.27;;;;;;;;;;4540160;28;20042;-65
2021/08/23 03:02:49;;;;;;;7.57;5.87;;;;;;;;;;4538348;28;20030;-65
2021/08/23 03:04:59;;;;;;;8.30;6.10;;;;;;;;;;4541441;28;31186;-65
2021/08/23 03:07:10;;;;;;;7.93;6.07;;;;;;;;;;4540171;28;20086;-65
2021/08/23 03:09:21;;;;;;;8.37;6.07;;;;;;;;;;4541024;28;20030;-65
2021/08/23 03:11:31;;;;;;;7.50;5.93;;;;;;;;;;4539585;28;20063;-65
2021/08/23 03:13:43;;;;;;;7.30;6.10;;;;;;;;;;4541911;28;20423;-65
2021/08/23 03:15:54;;;;;;;7.95;6.25;;;;;;;;;;4537705;28;20037;-65
2021/08/23 03:18:04;;;;;;;8.20;6.40;;;;;;;;;;4540076;28;31927;-65
2021/08/23 03:20:15;;;;;;;8.47;6.57;;;;;;;;;;4542025;28;20486;-65
2021/08/23 03:22:25;;;;;;;7.40;6.10;;;;;;;;;;4542432;28;20032;-65
2021/08/23 03:24:36;;;;;;;7.27;6.07;;;;;;;;;;4539703;28;20512;-65
2021/08/23 03:26:46;;;;;;;8.63;6.40;;;;;;;;;;4538453;28;20033;-66
2021/08/23 03:28:56;;;;;;;7.17;5.80;;;;;;;;;;4537138;28;20068;-65
2021/08/23 03:31:07;;;;;;;8.57;6.40;;;;;;;;;;4539172;28;20033;-65
2021/08/23 03:33:18;;;;;;;8.30;6.47;;;;;;;;;;4540115;28;20175;-65
2021/08/23 03:35:28;;;;;;;7.93;6.22;;;;;;;;;;4543945;28;20501;-65
2021/08/23 03:37:39;;;;;;;8.43;6.40;;;;;;;;;;4510084;28;20053;-65
2021/08/23 03:39:49;;;;;;;8.47;6.03;;;;;;;;;;4539138;28;20068;-65
2021/08/23 03:42:00;;;;;;;8.17;6.40;;;;;;;;;;4538543;28;20128;-65
2021/08/23 03:44:10;;;;;;;7.90;6.30;;;;;;;;;;4538199;28;20145;-65
2021/08/23 03:46:21;;;;;;;7.63;6.33;;;;;;;;;;4539935;28;20418;-65
2021/08/23 03:48:31;;;;;;;8.13;6.57;;;;;;;;;;4538657;28;20041;-65
2021/08/23 03:50:41;;;;;;;7.70;6.30;;;;;;;;;;4538218;28;20116;-65
2021/08/23 03:52:52;;;;;;;7.67;5.80;;;;;;;;;;4536688;28;20112;-65
2021/08/23 03:55:04;;;;;;;7.57;6.23;;;;;;;;;;4540546;28;20128;-65
2021/08/23 03:57:14;;;;;;;9.15;6.47;;;;;;;;;;4539862;28;20137;-65
2021/08/23 03:59:25;;;;;;;7.83;5.93;;;;;;;;;;4541708;28;20071;-65
2021/08/23 04:01:35;;;;;;;7.50;6.03;;;;;;;;;;4539977;28;20044;-65
2021/08/23 04:03:46;;;;;;;7.53;5.47;;;;;;;;;;4541460;28;20075;-65
2021/08/23 04:05:56;;;;;;;7.20;5.70;;;;;;;;;;4541284;28;20098;-65
2021/08/23 04:08:07;;;;;;;7.10;5.63;;;;;;;;;;4541451;28;20435;-65
2021/08/23 04:10:17;;;;;;;7.33;4.90;;;;;;;;;;4536587;28;20096;-65
2021/08/23 04:12:28;;;;;;;6.57;5.07;;;;;;;;;;4540013;28;20556;-65
2021/08/23 04:14:38;;;;;;;6.88;5.28;;;;;;;;;;4540711;28;20119;-65
2021/08/23 04:16:49;;;;;;;6.23;5.20;;;;;;;;;;4540172;28;20029;-65
2021/08/23 04:18:59;;;;;;;5.80;4.70;;;;;;;;;;4537438;28;20127;-65
2021/08/23 04:21:10;;;;;;;6.50;4.77;;;;;;;;;;4538564;28;20041;-65
2021/08/23 04:23:20;;;;;;;5.80;4.63;;;;;;;;;;4540815;28;20048;-67
2021/08/23 04:25:31;;;;;;;5.37;4.00;;;;;;;;;;4539010;28;20079;-65
2021/08/23 04:27:41;;;;;;;6.50;4.67;;;;;;;;;;4540293;28;20040;-65
2021/08/23 04:29:52;;;;;;;4.63;3.70;;;;;;;;;;4541721;28;20079;-65
2021/08/23 04:32:03;;;;;;;5.67;4.53;;;;;;;;;;4541666;28;27039;-65
2021/08/23 04:34:14;;;;;;;5.10;3.60;;;;;;;;;;4539672;28;20045;-65
2021/08/23 04:36:24;;;;;;;5.27;3.77;;;;;;;;;;4543326;28;20036;-65
2021/08/23 04:38:34;;;;;;;5.03;4.27;;;;;;;;;;4537999;28;22306;-65
2021/08/23 04:40:45;;;;;;;4.70;3.77;;;;;;;;;;4541671;28;20041;-65
2021/08/23 04:42:56;;;;;;;5.00;4.10;;;;;;;;;;4543142;28;20032;-65
2021/08/23 04:45:06;;;;;;;4.90;3.90;;;;;;;;;;4541963;28;20037;-65
2021/08/23 04:47:17;;;;;;;5.70;3.93;;;;;;;;;;4541730;28;20044;-65
2021/08/23 04:49:27;;;;;;;6.07;4.40;;;;;;;;;;4542166;28;20307;-65
2021/08/23 04:51:38;;;;;;;7.07;4.40;;;;;;;;;;4540858;28;20040;-65
2021/08/23 04:53:48;;;;;;;5.13;4.10;;;;;;;;;;4539462;28;20037;-65
2021/08/23 04:55:59;;;;;;;5.37;4.00;;;;;;;;;;4543175;28;20033;-65
2021/08/23 04:58:09;;;;;;;5.07;4.00;;;;;;;;;;4541898;28;20041;-65
2021/08/23 05:00:20;;;;;;;5.03;4.17;;;;;;;;;;4543273;28;20036;-65
2021/08/23 05:02:30;;;;;;;5.33;4.20;;;;;;;;;;4541047;28;20415;-65
2021/08/23 05:04:40;;;;;;;5.27;4.33;;;;;;;;;;4543984;28;20044;-65
2021/08/23 05:06:51;;;;;;;5.97;4.57;;;;;;;;;;4536592;28;20064;-65
2021/08/23 05:09:02;;;;;;;5.10;3.93;;;;;;;;;;4539875;28;20029;-65
2021/08/23 05:11:12;;;;;;;5.87;4.50;;;;;;;;;;4541751;28;20035;-64
2021/08/23 05:13:23;;;;;;;5.30;4.20;;;;;;;;;;4541602;28;20068;-65
2021/08/23 05:15:33;;;;;;;5.07;4.20;;;;;;;;;;4539897;28;20037;-65
2021/08/23 05:17:43;;;;;;;5.37;4.30;;;;;;;;;;4541341;28;24166;-65
2021/08/23 05:19:54;;;;;;;5.27;4.10;;;;;;;;;;4541800;28;20037;-66
2021/08/23 05:22:04;;;;;;;5.43;4.23;;;;;;;;;;4541621;28;20033;-65
2021/08/23 05:24:16;;;;;;;5.35;4.35;;;;;;;;;;4546449;28;20091;-65
2021/08/23 05:26:27;;;;;;;5.87;4.00;;;;;;;;;;4541597;28;20115;-66
2021/08/23 05:28:37;;;;;;;5.27;4.10;;;;;;;;;;4541501;28;20037;-65
2021/08/23 05:30:48;;;;;;;5.20;4.30;;;;;;;;;;4541346;28;20119;-65
2021/08/23 05:32:58;;;;;;;4.47;3.93;;;;;;;;;;4542124;28;20488;-65
2021/08/23 05:35:10;;;;;;;5.50;4.27;;;;;;;;;;4539667;28;20132;-65
2021/08/23 05:37:20;;;;;;;;;;;;;;;;;;4540673;28;20409;-65
2021/08/23 05:39:30;;;;;;;5.20;4.13;;;;;;;;;;4544122;28;20443;-65
2021/08/23 05:41:41;;;;;;;6.10;4.70;;;;;;;;;;4541268;28;20036;-65
2021/08/23 05:43:51;;;;;;;4.63;3.90;;;;;;;;;;4540521;28;20068;-65
2021/08/23 05:46:02;;;;;;;5.23;4.07;;;;;;;;;;4539879;28;20438;-65
2021/08/23 05:48:12;;;;;;;5.03;4.20;;;;;;;;;;4540977;28;20029;-65
2021/08/23 05:50:23;;;;;;;4.43;3.67;;;;;;;;;;4541119;28;20099;-65
2021/08/23 05:52:34;;;;;;;5.68;3.90;;;;;;;;;;4540816;28;20692;-65
2021/08/23 05:54:46;;;;;;;4.40;3.47;;;;;;;;;;4540749;28;21468;-65
2021/08/23 05:56:58;;;;;;;3.95;3.40;;;;;;;;;;4541210;28;20041;-65
2021/08/23 05:59:08;;;;;;;4.22;3.40;;;;;;;;;;4540846;28;20068;-65
2021/08/23 06:01:19;;;;;;;4.47;3.40;;;;;;;;;;4542078;28;20124;-64
2021/08/23 06:03:29;;;;;;;4.33;3.30;;;;;;;;;;4541728;28;20036;-64
2021/08/23 06:05:39;;;;;;;4.00;3.37;;;;;;;;;;4540994;28;20192;-64
2021/08/23 06:07:50;;;;;;;4.53;3.10;;;;;;;;;;4541573;28;20468;-64
2021/08/23 06:10:00;;;;;;;3.23;2.90;;;;;;;;;;4540249;28;20116;-64
2021/08/23 06:12:10;;;;;;;4.73;3.50;;;;;;;;;;4541456;28;20331;-64
2021/08/23 06:14:21;;;;;;;4.33;2.90;;;;;;;;;;4541835;28;20421;-64
2021/08/23 06:16:31;;;;;;;3.70;3.10;;;;;;;;;;4541728;28;20111;-64
2021/08/23 06:18:42;;;;;;;3.57;3.10;;;;;;;;;;4541321;28;20509;-64
2021/08/23 06:20:53;;;;;;;3.80;3.23;;;;;;;;;;4540330;28;20218;-64
2021/08/23 06:23:04;;;;;;;3.33;2.70;;;;;;;;;;4541384;28;20037;-64
2021/08/23 06:25:14;;;;;;;3.70;2.77;;;;;;;;;;4540828;28;27172;-64
2021/08/23 06:27:24;;;;;;;4.20;3.10;;;;;;;;;;4540605;28;20033;-64
2021/08/23 06:29:35;;;;;;;3.70;2.90;;;;;;;;;;4540099;28;20025;-64
2021/08/23 06:31:45;;;;;;;3.47;2.90;;;;;;;;;;4541373;28;20028;-64
2021/08/23 06:33:56;;;;;;;3.70;2.77;;;;;;;;;;4540738;28;20033;-64
2021/08/23 06:36:06;;;;;;;3.33;2.80;;;;;;;;;;4541214;28;20126;-64
2021/08/23 06:38:17;;;;;;;3.47;2.70;;;;;;;;;;4541591;28;20037;-64
2021/08/23 06:40:28;;;;;;;2.93;2.40;;;;;;;;;;4540918;28;20040;-64
2021/08/23 06:42:38;;;;;;;3.77;2.50;;;;;;;;;;4541370;28;20476;-64
2021/08/23 06:44:49;;;;;;;2.93;2.47;;;;;;;;;;4538604;28;20063;-64
2021/08/23 06:46:59;;;;;;;3.50;2.40;;;;;;;;;;4540050;28;20478;-64
2021/08/23 06:49:09;;;;;;;3.33;2.60;;;;;;;;;;4538895;28;20036;-64
2021/08/23 06:51:21;;;;;;;3.67;2.57;;;;;;;;;;4542321;28;20033;-64
2021/08/23 06:53:31;;;;;;;;;;;;;;;;;;4541301;28;20473;-64
2021/08/23 06:55:42;;;;;;;3.30;2.25;;;;;;;;;;4540938;28;20412;-64
2021/08/23 06:57:52;;;;;;;3.13;2.23;;;;;;;;;;4541045;28;20549;-64
2021/08/23 07:00:04;;;;;;;3.30;2.40;;;;;;;;;;4541622;28;20107;-64
2021/08/23 07:02:15;;;;;;;2.72;2.20;;;;;;;;;;4541539;28;20072;-64
2021/08/23 07:04:25;;;;;;;2.60;2.13;;;;;;;;;;4539145;28;20128;-64
2021/08/23 07:06:35;;;;;;;4.20;2.30;;;;;;;;;;4543077;28;20076;-64
2021/08/23 07:08:46;;;;;;;3.83;2.40;;;;;;;;;;4540664;28;20033;-64
2021/08/23 07:10:58;;;;;;;2.53;2.27;;;;;;;;;;4541338;28;20044;-64
2021/08/23 07:13:08;;;;;;;3.38;2.50;;;;;;;;;;4543112;28;20606;-64
2021/08/23 07:15:18;;;;;;;3.23;2.37;;;;;;;;;;4542641;28;20055;-64
2021/08/23 07:17:29;;;;;;;3.43;2.70;;;;;;;;;;4540694;28;20037;-64
2021/08/23 07:19:39;;;;;;;3.33;2.13;;;;;;;;;;4540614;28;20089;-64
2021/08/23 07:21:50;;;;;;;4.63;2.53;;;;;;;;;;4543261;28;20127;-64
2021/08/23 07:24:00;;;;;;;2.83;2.40;;;;;;;;;;4537449;28;20079;-64
2021/08/23 07:26:11;;;;;;;3.73;2.67;;;;;;;;;;4538805;28;27186;-64
2021/08/23 07:28:21;;;;;;;5.13;2.50;;;;;;;;;;4540076;28;20103;-65
2021/08/23 07:30:32;;;;;;;3.57;2.50;;;;;;;;;;4538604;28;20036;-65
2021/08/23 07:32:43;;;;;;;2.53;2.30;;;;;;;;;;4541010;28;20933;-64
2021/08/23 07:34:53;;;;;;;3.40;2.50;;;;;;;;;;4539509;28;20025;-64
2021/08/23 07:37:04;;;;;;;3.47;2.77;;;;;;;;;;4539893;28;20481;-64
2021/08/23 07:39:15;;;;;;;3.67;2.65;;;;;;;;;;4522757;28;20049;-64
2021/08/23 07:41:26;;;;;;;3.95;2.80;;;;;;;;;;4521955;28;20154;-65
2021/08/23 07:43:39;;;;;;;4.53;2.88;;;;;;;;;;4540853;28;20596;-66
2021/08/23 07:45:53;;;;;;;4.13;3.38;;;;;;;;;;4504042;28;20065;-65
2021/08/23 07:48:04;;;;;;;4.30;3.40;;;;;;;;;;4540603;28;20025;-65
2021/08/23 07:50:15;;;;;;;3.70;3.25;;;;;;;;;;4526820;28;20039;-65
2021/08/23 07:52:26;;;;;;;3.88;3.15;;;;;;;;;;4525266;28;20581;-63
2021/08/23 07:54:37;;;;;;;3.67;3.20;;;;;;;;;;4539904;28;20033;-66
2021/08/23 07:56:47;;;;;;;4.07;3.10;;;;;;;;;;4539809;28;20044;-66
2021/08/23 07:58:57;;;;;;;3.87;3.33;;;;;;;;;;4539372;28;20037;-64
2021/08/23 08:01:08;;;;;;;3.37;3.03;;;;;;;;;;4540956;28;20761;-64
2021/08/23 08:03:19;;;;;;;4.22;3.35;;;;;;;;;;4544677;28;20025;-63
2021/08/23 08:05:29;;;;;;;4.37;3.33;;;;;;;;;;4540717;28;20028;-64
2021/08/23 08:07:41;;;;;;;3.63;2.97;;;;;;;;;;4543536;28;20429;-62
2021/08/23 08:09:51;;;;;;;;;;;;;;;;;;4544796;28;20503;-62
2021/08/23 08:12:02;;;;;;;4.53;3.23;;;;;;;;;;4543301;28;19950;-66
2021/08/23 08:14:13;;;;;;;3.92;3.03;;;;;;;;;;4545748;28;20587;-66
2021/08/23 08:16:23;;;;;;;4.97;3.10;;;;;;;;;;4543779;28;20045;-67
2021/08/23 08:18:34;;;;;;;4.43;3.47;;;;;;;;;;4540947;28;20032;-66
2021/08/23 08:20:44;;;;;;;4.60;3.53;;;;;;;;;;4540597;28;20078;-68
2021/08/23 08:22:55;;;;;;;4.93;3.77;;;;;;;;;;4544667;28;20029;-67
2021/08/23 08:25:07;;;;;;;5.50;3.87;;;;;;;;;;4541729;28;20371;-67
2021/08/23 08:27:17;;;;;;;4.57;3.17;;;;;;;;;;4543563;28;21223;-67
2021/08/23 08:29:27;;;;;;;4.57;3.47;;;;;;;;;;4544083;28;20029;-66
2021/08/23 08:31:39;;;;;;;4.90;3.30;;;;;;;;;;4540557;28;20079;-66
2021/08/23 08:33:49;;;;;;;4.00;3.27;;;;;;;;;;4541446;28;20047;-66
2021/08/23 08:36:00;;;;;;;4.43;3.50;;;;;;;;;;4542490;28;20036;-68
2021/08/23 08:38:10;;;;;;;5.67;3.80;;;;;;;;;;4540432;28;20125;-68
2021/08/23 08:40:21;;;;;;;4.40;3.63;;;;;;;;;;4541333;28;20033;-67
2021/08/23 08:42:31;;;;;;;6.03;3.40;;;;;;;;;;4540640;28;20040;-68
2021/08/23 08:44:41;;;;;;;4.37;3.63;;;;;;;;;;4542272;28;20037;-67
2021/08/23 08:46:55;;;;;;;4.03;3.13;;;;;;;;;;4543379;28;20044;-66
2021/08/23 08:49:05;;;;;;;4.78;3.53;;;;;;;;;;4541977;28;20033;-67
2021/08/23 08:51:16;;;;;;;4.13;3.30;;;;;;;;;;4541537;28;20048;-67
2021/08/23 08:53:26;;;;;;;4.67;3.30;;;;;;;;;;4543257;28;20035;-73
2021/08/23 08:55:37;;;;;;;4.27;3.60;;;;;;;;;;4541148;28;20139;-67
2021/08/23 08:57:47;;;;;;;5.10;3.77;;;;;;;;;;4539886;28;20569;-70
2021/08/23 08:59:58;;;;;;;3.85;3.33;;;;;;;;;;4544769;28;20028;-68
2021/08/23 09:02:08;;;;;;;4.53;3.50;;;;;;;;;;4540870;28;20041;-66
2021/08/23 09:04:35;;;;;;;4.77;3.73;;;;;;;;;;4541120;28;20083;-66
2021/08/23 09:06:46;;;;;;;4.68;3.70;;;;;;;;;;4538784;28;20052;-68
2021/08/23 09:08:57;;;;;;;;;;;;;;;;;;4540327;28;20036;-65
2021/08/23 09:11:12;;;;;;;6.13;4.22;;;;;;;;;;4524079;28;24360;-65
2021/08/23 09:13:23;;;;;;;5.07;3.60;;;;;;;;;;4540170;28;20051;-64
2021/08/23 09:15:35;;;;;;;4.93;3.63;;;;;;;;;;4541223;28;20040;-63
2021/08/23 09:17:45;;;;;;;6.38;4.15;;;;;;;;;;4543256;28;20036;-64
2021/08/23 09:20:03;;;;;;;4.50;3.60;;;;;;;;;;4543190;28;20041;-64
2021/08/23 09:22:16;;;;;;;4.38;3.33;;;;;;;;;;4541986;28;20039;-64
2021/08/23 09:24:39;;;;;;;5.50;3.65;;;;;;;;;;4556474;28;20091;-64
2021/08/23 09:27:01;;;;;;;4.82;3.40;;;;;;;;;;4540023;28;20041;-60
2021/08/23 09:29:11;;;;;;;3.60;3.05;;;;;;;;;;4542438;28;20044;-61
2021/08/23 09:31:26;;;;;;;4.10;3.30;;;;;;;;;;4555333;28;20075;-60
2021/08/23 09:33:46;;;;;;;5.05;3.63;;;;;;;;;;4541091;28;20033;-60
2021/08/23 09:35:56;;;;;;;4.68;2.90;;;;;;;;;;4540096;28;20606;-60
2021/08/23 09:38:11;;;;;;;5.63;3.40;;;;;;;;;;4539522;28;24055;-60
2021/08/23 09:40:33;;;;;;;4.32;3.40;;;;;;;;;;4544210;28;20029;-60
2021/08/23 09:42:43;;;;;;;3.20;2.83;;;;;;;;;;4527397;28;20037;-60
2021/08/23 09:44:54;;;;;;;3.80;2.93;;;;;;;;;;4542654;28;20588;-60
2021/08/23 09:47:05;;;;;;;3.93;3.00;;;;;;;;;;4541595;28;20095;-60
2021/08/23 09:49:16;;;;;;;;;;;;;;;;;;4540141;28;20523;-60
2021/08/23 09:51:27;;;;;;;3.80;2.90;;;;;;;;;;4541375;28;19939;-60
2021/08/23 09:53:38;;;;;;;3.45;2.70;;;;;;;;;;4539382;28;20037;-60
2021/08/23 09:55:50;;;;;;;3.70;2.70;;;;;;;;;;4541815;28;27040;-60
2021/08/23 09:58:01;;;;;;;3.63;2.70;;;;;;;;;;4528499;28;20561;-60
2021/08/23 10:00:12;;;;;;;3.35;2.50;;;;;;;;;;4524390;28;20037;-60
2021/08/23 10:02:24;;;;;;;3.08;2.50;;;;;;;;;;4542269;28;20040;-60
2021/08/23 10:04:35;;;;;;;2.97;2.58;;;;;;;;;;4540711;28;20028;-59
2021/08/23 10:06:46;;;;;;;2.97;2.27;;;;;;;;;;4538346;28;20083;-60
2021/08/23 10:08:57;;;;;;;3.40;2.50;;;;;;;;;;4523440;28;20079;-60
2021/08/23 10:11:12;;;;;;;3.17;2.42;;;;;;;;;;4539808;28;20048;-60
2021/08/23 10:13:23;;;;;;;3.67;2.55;;;;;;;;;;4540578;28;20037;-61
2021/08/23 10:15:34;;;;;;;3.83;2.20;;;;;;;;;;4541536;28;20871;-61
2021/08/23 10:17:44;;;;;;;2.83;2.20;;;;;;;;;;4521965;28;20025;-60
2021/08/23 10:19:57;;;;;;;2.80;2.00;;;;;;;;;;4538894;28;20083;-60
2021/08/23 10:22:08;;;;;;;4.07;2.30;;;;;;;;;;4539398;28;20927;-60
2021/08/23 10:24:25;;;;;;;2.92;2.00;;;;;;;;;;4538900;28;20557;-60
2021/08/23 10:26:44;;;;;;;2.40;1.70;;;;;;;;;;4541059;28;20575;-60
2021/08/23 10:28:54;;;;;;;1.75;1.63;;;;;;;;;;4537992;28;20037;-60
2021/08/23 10:31:09;;;;;;;2.67;1.77;;;;;;;;;;4539387;28;20045;-60
2021/08/23 10:33:20;;;;;;;2.58;1.55;;;;;;;;;;4538052;28;20045;-61
2021/08/23 10:35:30;;;;;;;2.63;1.83;;;;;;;;;;4542005;28;20029;-60
2021/08/23 10:37:43;;;;;;;2.70;1.70;;;;;;;;;;4542368;28;20049;-60
2021/08/23 10:40:00;;;;;;;1.83;1.50;;;;;;;;;;4538446;28;20033;-60
2021/08/23 10:42:13;;;;;;;2.28;1.60;;;;;;;;;;4541927;28;20691;-60
2021/08/23 10:44:28;;;;;;;1.65;1.42;;;;;;;;;;4541593;28;21056;-60
2021/08/23 10:46:39;;;;;;;2.25;1.48;;;;;;;;;;4542338;28;20041;-60
2021/08/23 10:48:50;;;;;;;;;;;;;;;;;;4539773;28;21531;-60
2021/08/23 10:51:03;;;;;;;2.80;1.50;;;;;;;;;;4540211;28;19922;-61
2021/08/23 10:53:14;;;;;;;1.40;1.27;;;;;;;;;;4528108;28;20040;-61
2021/08/23 10:55:27;;;;;;;2.47;1.70;;;;;;;;;;4543197;28;20032;-60
2021/08/23 10:57:37;;;;;;;2.25;1.60;;;;;;;;;;4541409;28;20133;-60
2021/08/23 11:23:48;;;;;;;2.90;1.83;;;;;;;;;;4577937;27;20407;-62
2021/08/23 11:26:01;;;;;;;2.63;1.83;;;;;;;;;;4571472;28;20102;-61
2021/08/23 11:28:14;;;;;;;3.50;1.83;;;;;;;;;;4569246;28;20028;-62
2021/08/23 11:30:38;;;;;;;2.42;1.70;;;;;;;;;;4574338;27;20059;-62
2021/08/23 11:32:49;;;;;;;3.25;2.13;;;;;;;;;;4570174;28;20037;-62
2021/08/23 11:35:00;;;;;;;3.20;2.20;;;;;;;;;;4570889;27;20052;-62
2021/08/23 11:37:12;;;;;;;;;;;;;;;;;;4570752;28;20032;-62
2021/08/23 11:39:22;;;;;;;2.85;1.88;;;;;;;;;;4571679;27;19917;-62
2021/08/23 11:41:33;;;;;;;2.77;1.83;;;;;;;;;;4571342;28;20032;-62
2021/08/23 11:43:44;;;;;;;2.63;1.80;;;;;;;;;;4570538;28;20028;-62
2021/08/23 11:45:55;;;;;;;;;;;;;;;;;;4572077;27;20032;-61
2021/08/23 11:48:06;;;;;;;2.83;1.85;;;;;;;;;;4586632;27;19911;-62
2021/08/23 11:50:21;;;;;;;2.75;2.00;;;;;;;;;;4586503;27;20139;-62
2021/08/23 11:52:32;;;;;;;3.00;1.98;;;;;;;;;;4573536;27;20089;-64
2021/08/23 11:54:50;;;;;;;2.70;1.83;;;;;;;;;;4570724;27;20069;-64
2021/08/23 11:57:05;;;;;;;3.78;2.05;;;;;;;;;;4571227;28;20029;-63
2021/08/23 11:59:16;;;;;;;2.55;1.70;;;;;;;;;;4552575;28;20044;-63
2021/08/23 12:01:26;;;;;;;2.63;1.60;;;;;;;;;;4571707;27;20495;-63
2021/08/23 12:03:39;;;;;;;2.43;1.70;;;;;;;;;;4571267;27;20451;-63
2021/08/23 12:05:50;;;;;;;2.50;1.67;;;;;;;;;;4571623;27;21078;-63
2021/08/23 12:08:00;;;;;;;1.93;1.50;;;;;;;;;;4571518;27;20178;-63
2021/08/23 12:10:32;;;;;;;1.97;1.40;;;;;;;;;;4553766;28;24222;-63
2021/08/23 12:12:43;;;;;;;1.73;1.60;;;;;;;;;;4563501;28;20087;-63
2021/08/23 12:14:58;;;;;;;2.30;1.70;;;;;;;;;;4571365;27;20043;-63
2021/08/23 12:17:08;;;;;;;2.25;1.45;;;;;;;;;;4569942;28;20746;-63
2021/08/23 12:19:19;;;;;;;1.83;1.43;;;;;;;;;;4571005;27;20102;-63
2021/08/23 12:21:31;;;;;;;1.67;1.58;;;;;;;;;;4570833;28;20078;-64
2021/08/23 12:23:56;;;;;;;2.03;1.45;;;;;;;;;;4570477;27;20505;-63
2021/08/23 12:26:07;;;;;;;1.95;1.50;;;;;;;;;;4571462;27;21030;-63
2021/08/23 12:28:17;;;;;;;2.17;1.55;;;;;;;;;;4571476;28;20086;-64
2021/08/23 12:30:30;;;;;;;1.77;1.63;;;;;;;;;;4570875;27;20631;-63
2021/08/23 12:32:40;;;;;;;2.97;1.90;;;;;;;;;;4568669;28;20040;-63
2021/08/23 12:34:51;;;;;;;2.10;1.63;;;;;;;;;;4559584;27;20584;-63
2021/08/23 12:37:03;;;;;;;1.85;1.55;;;;;;;;;;4558130;28;20111;-63
2021/08/23 12:39:14;;;;;;;1.95;1.58;;;;;;;;;;4557725;28;20689;-63
2021/08/23 12:41:24;;;;;;;1.95;1.50;;;;;;;;;;4558533;28;20082;-63
2021/08/23 12:43:39;;;;;;;1.73;1.43;;;;;;;;;;4558285;28;20128;-63
2021/08/23 12:45:50;;;;;;;1.63;1.50;;;;;;;;;;4544260;28;20148;-63
2021/08/23 12:48:00;;;;;;;2.03;1.50;;;;;;;;;;4557894;28;20051;-64
2021/08/23 12:50:11;;;;;;;2.00;1.77;;;;;;;;;;4558149;28;20078;-64
2021/08/23 12:52:21;;;;;;;3.17;1.80;;;;;;;;;;4557936;28;20064;-63
2021/08/23 12:54:32;;;;;;;2.10;1.70;;;;;;;;;;4557890;28;20409;-63
2021/08/23 12:56:43;;;;;;;2.93;1.77;;;;;;;;;;4557111;28;20040;-64
2021/08/23 12:58:54;;;;;;;2.35;1.60;;;;;;;;;;4556068;28;20040;-64
2021/08/23 13:01:04;;;;;;;2.40;1.90;;;;;;;;;;4558052;28;20493;-62
2021/08/23 13:03:14;;;;;;;2.30;1.60;;;;;;;;;;4557977;28;20066;-63
2021/08/23 13:05:25;;;;;;;2.70;1.80;;;;;;;;;;4559308;28;20039;-63
2021/08/23 13:07:36;;;;;;;2.50;1.80;;;;;;;;;;4556952;28;20972;-64
2021/08/23 13:09:46;;;;;;;2.20;1.70;;;;;;;;;;4556991;28;20071;-63
2021/08/23 13:11:57;;;;;;;2.57;1.70;;;;;;;;;;4558114;28;20043;-63
2021/08/23 13:14:07;;;;;;;2.57;1.60;;;;;;;;;;4557348;28;24640;-63
2021/08/23 13:16:18;;;;;;;2.43;1.70;;;;;;;;;;4558407;28;20086;-65
2021/08/23 13:18:28;;;;;;;2.80;1.97;;;;;;;;;;4557347;28;20713;-65
2021/08/23 13:20:39;;;;;;;1.83;1.60;;;;;;;;;;4557602;28;30660;-64
2021/08/23 13:22:51;;;;;;;2.65;1.88;;;;;;;;;;4555949;28;20049;-62
2021/08/23 13:25:02;;;;;;;1.60;1.42;;;;;;;;;;4557751;28;20033;-63
2021/08/23 13:27:13;;;;;;;3.27;2.00;;;;;;;;;;4557112;28;20041;-65
2021/08/23 13:29:23;;;;;;;1.80;1.40;;;;;;;;;;4557219;28;21465;-65
2021/08/23 13:31:34;;;;;;;1.70;1.40;;;;;;;;;;4557746;28;20037;-71
2021/08/23 13:33:44;;;;;;;3.00;1.70;;;;;;;;;;4558224;28;20020;-64